createdAt,value
2023-03-01T00:00:11.775Z,97100.03
2023-03-01T00:03:00.302Z,97101.44
2023-03-01T00:05:49.989Z,97099.72
2023-03-01T00:08:38.931Z,97099.16
2023-03-01T00:11:31.181Z,97096.78
2023-03-01T00:14:19.799Z,97091.88
2023-03-01T00:17:09.145Z,97071.66
2023-03-01T00:19:57.788Z,97091.16
2023-03-01T00:22:47.724Z,97092.00
2023-03-01T00:25:43.815Z,97089.22
2023-03-01T00:28:33.932Z,97087.25
2023-03-01T00:31:25.834Z,97083.09
2023-03-01T00:34:14.468Z,97079.19
2023-03-01T00:37:06.590Z,97072.50
2023-03-01T00:39:56.226Z,97067.78
2023-03-01T00:42:44.833Z,97058.81
2023-03-01T00:45:37.255Z,97067.97
2023-03-01T00:48:26.313Z,97075.25
2023-03-01T00:51:16.620Z,97073.91
2023-03-01T00:54:05.406Z,97067.22
2023-03-01T00:56:55.074Z,97059.19
2023-03-01T00:59:44.785Z,97071.34
2023-03-01T01:02:36.506Z,97064.53
2023-03-01T01:05:25.991Z,97070.34
2023-03-01T01:08:15.999Z,97068.50
2023-03-01T01:11:05.785Z,97057.97
2023-03-01T01:13:54.979Z,97045.59
2023-03-01T01:16:45.120Z,97049.06
2023-03-01T01:19:36.428Z,97045.19
2023-03-01T01:22:25.699Z,97033.19
2023-03-01T01:25:15.163Z,97040.84
2023-03-01T01:28:03.931Z,97034.84
2023-03-01T01:30:53.742Z,97032.88
2023-03-01T01:33:42.563Z,97033.44
2023-03-01T01:36:34.218Z,97038.97
2023-03-01T01:39:24.275Z,97033.81
2023-03-01T01:42:17.413Z,97035.72
2023-03-01T01:45:29.352Z,97035.56
2023-03-01T01:48:23.101Z,97038.06
2023-03-01T01:51:14.868Z,97034.06
2023-03-01T01:54:12.318Z,97030.91
2023-03-01T01:57:04.033Z,97021.75
2023-03-01T01:59:57.205Z,97024.78
2023-03-01T02:02:49.016Z,97025.13
2023-03-01T02:05:44.708Z,97021.78
2023-03-01T02:08:37.871Z,97008.66
2023-03-01T02:11:29.693Z,97010.59
2023-03-01T02:14:18.911Z,97006.81
2023-03-01T02:17:07.525Z,97004.13
2023-03-01T02:20:09.024Z,97006.13
2023-03-01T02:22:57.721Z,96999.47
2023-03-01T02:25:53.511Z,97001.50
2023-03-01T02:28:47.284Z,96996.47
2023-03-01T02:31:45.827Z,97002.34
2023-03-01T02:34:35.105Z,97009.25
2023-03-01T02:37:26.222Z,97007.75
2023-03-01T02:40:18.952Z,97006.44
2023-03-01T02:43:12.659Z,97000.25
2023-03-01T02:46:07.822Z,97000.25
2023-03-01T02:48:58.809Z,97001.94
2023-03-01T02:52:08.935Z,96991.56
2023-03-01T02:55:03.166Z,96994.78
2023-03-01T02:57:53.195Z,96986.91
2023-03-01T03:00:46.443Z,96988.94
2023-03-01T03:03:39.654Z,96973.28
2023-03-01T03:06:29.093Z,96968.28
2023-03-01T03:09:18.459Z,96974.63
2023-03-01T03:12:08.879Z,96974.28
2023-03-01T03:14:57.584Z,96973.47
2023-03-01T03:17:47.122Z,96959.13
2023-03-01T03:20:37.653Z,96978.81
2023-03-01T03:23:27.348Z,96956.19
2023-03-01T03:26:16.142Z,96975.97
2023-03-01T03:29:05.289Z,96969.00
2023-03-01T03:31:54.306Z,96970.34
2023-03-01T03:34:43.419Z,96960.97
2023-03-01T03:37:50.610Z,96961.81
2023-03-01T03:40:42.539Z,96962.16
2023-03-01T03:43:33.676Z,96958.31
2023-03-01T03:46:22.754Z,96949.97
2023-03-01T03:49:11.354Z,96958.84
2023-03-01T03:52:00.891Z,96957.31
2023-03-01T03:54:51.337Z,96954.00
2023-03-01T03:57:39.957Z,96953.81
2023-03-01T04:00:29.003Z,96947.84
2023-03-01T04:03:20.135Z,96948.16
2023-03-01T04:06:08.845Z,96946.50
2023-03-01T04:09:01.507Z,96948.00
2023-03-01T04:11:51.414Z,96944.03
2023-03-01T04:14:42.244Z,96940.84
2023-03-01T04:17:31.177Z,96940.19
2023-03-01T04:20:26.557Z,96933.19
2023-03-01T04:23:19.851Z,96938.84
2023-03-01T04:26:10.155Z,96931.69
2023-03-01T04:29:00.150Z,96939.88
2023-03-01T04:31:52.162Z,96935.69
2023-03-01T04:34:40.844Z,96936.88
2023-03-01T04:37:30.768Z,96938.53
2023-03-01T04:40:19.568Z,96938.34
2023-03-01T04:43:09.520Z,96928.84
2023-03-01T04:46:05.122Z,96928.53
2023-03-01T04:48:53.689Z,96927.03
2023-03-01T04:51:43.908Z,96933.38
2023-03-01T04:54:33.120Z,96939.38
2023-03-01T04:57:22.128Z,96925.88
2023-03-01T05:00:21.879Z,96914.84
2023-03-01T05:03:11.769Z,96934.69
2023-03-01T05:06:01.850Z,96935.19
2023-03-01T05:08:50.439Z,96937.72
2023-03-01T05:11:39.994Z,96941.72
2023-03-01T05:14:29.801Z,96930.22
2023-03-01T05:17:19.848Z,96929.03
2023-03-01T05:20:12.091Z,96905.88
2023-03-01T05:23:06.556Z,96925.88
2023-03-01T05:25:55.875Z,96924.38
2023-03-01T05:28:45.624Z,96926.22
2023-03-01T05:31:34.234Z,96921.22
2023-03-01T05:34:26.357Z,96921.38
2023-03-01T05:37:16.756Z,96924.53
2023-03-01T05:40:06.565Z,96922.22
2023-03-01T05:42:58.562Z,96920.22
2023-03-01T05:45:47.676Z,96920.53
2023-03-01T05:48:37.017Z,96911.38
2023-03-01T05:51:25.575Z,96924.72
2023-03-01T05:54:15.530Z,96923.72
2023-03-01T05:57:04.535Z,96924.72
2023-03-01T05:59:53.089Z,96925.19
2023-03-01T06:02:42.736Z,96916.03
2023-03-01T06:05:31.650Z,96933.84
2023-03-01T06:08:21.660Z,96928.84
2023-03-01T06:11:11.608Z,96927.50
2023-03-01T06:14:00.255Z,96934.19
2023-03-01T06:16:48.990Z,96936.19
2023-03-01T06:19:38.512Z,96929.69
2023-03-01T06:22:27.516Z,96929.03
2023-03-01T06:25:21.303Z,96931.00
2023-03-01T06:28:11.509Z,96934.53
2023-03-01T06:31:00.162Z,96936.03
2023-03-01T06:33:50.239Z,96934.53
2023-03-01T06:36:39.246Z,96926.22
2023-03-01T06:39:29.745Z,96932.72
2023-03-01T06:42:20.079Z,96934.03
2023-03-01T06:45:11.724Z,96890.06
2023-03-01T06:48:05.988Z,96936.38
2023-03-01T06:50:54.733Z,96925.38
2023-03-01T06:53:43.338Z,96931.88
2023-03-01T06:56:32.936Z,96932.53
2023-03-01T06:59:21.967Z,96924.88
2023-03-01T07:02:14.227Z,96927.19
2023-03-01T07:05:02.894Z,96925.72
2023-03-01T07:07:51.674Z,96913.19
2023-03-01T07:10:41.370Z,96920.06
2023-03-01T07:13:30.307Z,96918.53
2023-03-01T07:16:21.713Z,96919.50
2023-03-01T07:19:11.658Z,96914.16
2023-03-01T07:22:00.592Z,96916.69
2023-03-01T07:24:49.241Z,96918.66
2023-03-01T07:27:38.740Z,96916.97
2023-03-01T07:30:29.274Z,96913.13
2023-03-01T07:33:19.436Z,96913.75
2023-03-01T07:36:11.164Z,96913.06
2023-03-01T07:39:03.261Z,96919.06
2023-03-01T07:41:51.929Z,96914.22
2023-03-01T07:44:44.010Z,96913.16
2023-03-01T07:47:32.759Z,96916.63
2023-03-01T07:50:22.097Z,96914.25
2023-03-01T07:53:12.759Z,96915.72
2023-03-01T07:56:06.909Z,96910.38
2023-03-01T07:58:55.587Z,96908.16
2023-03-01T08:01:44.299Z,96912.09
2023-03-01T08:04:34.464Z,96909.19
2023-03-01T08:07:23.066Z,96917.28
2023-03-01T08:10:14.287Z,96909.31
2023-03-01T08:13:02.865Z,96907.81
2023-03-01T08:15:52.230Z,96903.19
2023-03-01T08:18:41.242Z,96901.84
2023-03-01T08:21:29.852Z,96894.56
2023-03-01T08:24:18.909Z,96897.00
2023-03-01T08:27:09.455Z,96887.84
2023-03-01T08:29:58.051Z,96891.97
2023-03-01T08:32:47.431Z,96896.50
2023-03-01T08:35:36.118Z,96883.75
2023-03-01T08:38:25.744Z,96892.50
2023-03-01T08:41:14.895Z,96885.47
2023-03-01T08:44:05.278Z,96875.06
2023-03-01T08:46:55.425Z,96878.09
2023-03-01T08:49:44.471Z,96878.38
2023-03-01T08:52:34.931Z,96878.53
2023-03-01T08:55:23.585Z,96881.13
2023-03-01T08:58:12.192Z,96866.66
2023-03-01T09:01:04.418Z,96868.22
2023-03-01T09:03:53.263Z,96872.09
2023-03-01T09:06:42.004Z,96872.44
2023-03-01T09:09:30.624Z,96874.41
2023-03-01T09:12:20.247Z,96870.81
2023-03-01T09:15:10.260Z,96876.56
2023-03-01T09:18:01.147Z,96867.97
2023-03-01T09:20:49.708Z,96870.47
2023-03-01T09:23:41.177Z,96853.16
2023-03-01T09:26:30.225Z,96868.75
2023-03-01T09:29:19.220Z,96856.75
2023-03-01T09:32:09.139Z,96846.78
2023-03-01T09:35:08.511Z,96860.69
2023-03-01T09:37:57.105Z,96855.09
2023-03-01T09:40:47.964Z,96853.44
2023-03-01T09:43:56.532Z,96824.03
2023-03-01T09:46:47.128Z,96845.16
2023-03-01T09:49:39.361Z,96843.69
2023-03-01T09:52:34.785Z,96841.78
2023-03-01T09:55:32.425Z,96839.44
2023-03-01T09:58:39.613Z,96819.72
2023-03-01T10:01:35.634Z,96834.50
2023-03-01T10:04:36.488Z,96830.28
2023-03-01T10:07:38.936Z,96826.22
2023-03-01T10:10:30.803Z,96819.38
2023-03-01T10:13:29.281Z,96824.78
2023-03-01T10:16:23.728Z,96792.56
2023-03-01T10:19:16.140Z,96794.34
2023-03-01T10:22:13.313Z,96808.06
2023-03-01T10:25:05.934Z,96809.25
2023-03-01T10:27:59.343Z,96804.31
2023-03-01T10:30:48.205Z,96803.94
2023-03-01T10:33:41.037Z,96794.50
2023-03-01T10:36:34.558Z,96797.16
2023-03-01T10:39:25.554Z,96794.91
2023-03-01T10:42:28.712Z,96795.91
2023-03-01T10:45:27.653Z,96777.06
2023-03-01T10:48:20.732Z,96788.53
2023-03-01T10:51:10.018Z,96788.50
2023-03-01T10:53:59.544Z,96780.22
2023-03-01T10:56:50.607Z,96777.19
2023-03-01T10:59:41.633Z,96772.53
2023-03-01T11:02:33.811Z,96761.22
2023-03-01T11:05:26.416Z,96755.41
2023-03-01T11:08:15.452Z,96748.63
2023-03-01T11:11:16.910Z,96750.88
2023-03-01T11:14:25.220Z,96745.25
2023-03-01T11:17:21.989Z,96731.84
2023-03-01T11:20:28.301Z,96735.09
2023-03-01T11:23:18.586Z,96722.09
2023-03-01T11:26:12.857Z,96713.13
2023-03-01T11:29:07.793Z,96712.47
2023-03-01T11:32:00.550Z,96712.16
2023-03-01T11:34:58.388Z,96712.59
2023-03-01T11:38:01.535Z,96704.81
2023-03-01T11:40:56.216Z,96709.47
2023-03-01T11:43:53.491Z,96705.09
2023-03-01T11:47:19.240Z,96686.88
2023-03-01T11:50:17.768Z,96687.38
2023-03-01T11:53:31.436Z,96673.00
2023-03-01T11:56:30.632Z,96678.72
2023-03-01T11:59:53.402Z,96673.72
2023-03-01T12:03:19.580Z,96668.38
2023-03-01T12:06:31.207Z,96662.09
2023-03-01T12:09:33.848Z,96665.16
2023-03-01T12:12:40.179Z,96646.44
2023-03-01T12:15:42.297Z,96657.09
2023-03-01T12:18:47.840Z,96649.94
2023-03-01T12:22:01.181Z,96658.00
2023-03-01T12:25:33.156Z,96644.38
2023-03-01T12:28:46.857Z,96646.03
2023-03-01T12:32:02.720Z,96642.66
2023-03-01T12:35:28.152Z,96637.72
2023-03-01T12:38:35.114Z,96629.03
2023-03-01T12:41:39.807Z,96628.06
2023-03-01T12:44:45.581Z,96625.91
2023-03-01T12:47:54.826Z,96625.75
2023-03-01T12:50:46.888Z,96623.94
2023-03-01T12:53:40.919Z,96610.09
2023-03-01T12:56:33.732Z,96615.91
2023-03-01T12:59:30.535Z,96612.38
2023-03-01T13:02:29.619Z,96615.13
2023-03-01T13:05:41.334Z,96603.97
2023-03-01T13:08:39.143Z,96603.19
2023-03-01T13:11:28.565Z,96599.91
2023-03-01T13:14:46.656Z,96607.84
2023-03-01T13:17:45.494Z,96608.94
2023-03-01T13:20:48.576Z,96611.72
2023-03-01T13:23:39.966Z,96615.81
2023-03-01T13:26:29.628Z,96612.81
2023-03-01T13:29:28.688Z,96613.91
2023-03-01T13:32:38.002Z,96616.13
2023-03-01T13:35:46.685Z,96612.25
2023-03-01T13:38:42.480Z,96607.88
2023-03-01T13:41:54.531Z,96604.09
2023-03-01T13:44:45.433Z,96602.72
2023-03-01T13:47:37.364Z,96598.34
2023-03-01T13:50:29.089Z,96592.59
2023-03-01T13:53:22.271Z,96592.88
2023-03-01T13:56:15.100Z,96589.06
2023-03-01T13:59:08.907Z,96594.50
2023-03-01T14:01:59.511Z,96591.47
2023-03-01T14:04:58.850Z,96590.06
2023-03-01T14:07:53.190Z,96583.75
2023-03-01T14:10:52.503Z,96588.13
2023-03-01T14:13:56.720Z,96583.19
2023-03-01T14:16:56.321Z,96585.13
2023-03-01T14:19:49.422Z,96579.44
2023-03-01T14:22:38.976Z,96569.31
2023-03-01T14:25:31.010Z,96575.00
2023-03-01T14:28:25.338Z,96576.06
2023-03-01T14:31:41.111Z,96570.38
2023-03-01T14:34:36.024Z,96565.72
2023-03-01T14:37:28.053Z,96562.41
2023-03-01T14:40:25.135Z,96561.31
2023-03-01T14:43:25.249Z,96550.44
2023-03-01T14:46:21.674Z,96554.78
2023-03-01T14:49:14.833Z,96544.06
2023-03-01T14:52:06.632Z,96550.13
2023-03-01T14:54:56.846Z,96538.06
2023-03-01T14:57:49.142Z,96525.53
2023-03-01T15:00:39.603Z,96532.41
2023-03-01T15:03:34.330Z,96530.22
2023-03-01T15:06:25.589Z,96531.34
2023-03-01T15:09:17.823Z,96518.78
2023-03-01T15:12:36.626Z,96524.81
2023-03-01T15:15:38.345Z,96523.72
2023-03-01T15:18:31.263Z,96524.56
2023-03-01T15:21:25.824Z,96513.06
2023-03-01T15:24:21.319Z,96529.16
2023-03-01T15:27:20.103Z,96531.63
2023-03-01T15:30:19.355Z,96529.41
2023-03-01T15:33:29.904Z,96532.13
2023-03-01T15:36:41.818Z,96538.88
2023-03-01T15:39:44.593Z,96528.69
2023-03-01T15:42:39.607Z,96538.06
2023-03-01T15:45:30.254Z,96527.06
2023-03-01T15:48:22.006Z,96534.66
2023-03-01T15:51:15.096Z,96538.31
2023-03-01T15:54:08.441Z,96532.47
2023-03-01T15:56:58.033Z,96434.69
2023-03-01T15:59:47.068Z,96537.06
2023-03-01T16:02:35.763Z,96535.22
2023-03-01T16:05:27.373Z,96533.25
2023-03-01T16:08:16.858Z,96527.91
2023-03-01T16:11:16.287Z,96527.97
2023-03-01T16:14:06.196Z,96526.06
2023-03-01T16:16:54.877Z,96528.75
2023-03-01T16:19:43.518Z,96527.19
2023-03-01T16:22:32.128Z,96512.41
2023-03-01T16:25:22.608Z,96515.88
2023-03-01T16:28:13.509Z,96507.75
2023-03-01T16:31:03.370Z,96515.81
2023-03-01T16:33:54.680Z,96520.38
2023-03-01T16:36:44.951Z,96518.00
2023-03-01T16:39:34.367Z,96515.50
2023-03-01T16:42:23.457Z,96518.69
2023-03-01T16:45:23.782Z,96518.06
2023-03-01T16:48:14.303Z,96512.22
2023-03-01T16:51:03.918Z,96528.69
2023-03-01T16:53:53.239Z,96515.66
2023-03-01T16:56:42.588Z,96520.97
2023-03-01T16:59:31.216Z,96519.28
2023-03-01T17:02:21.217Z,96526.78
2023-03-01T17:05:13.065Z,96521.81
2023-03-01T17:08:01.650Z,96521.19
2023-03-01T17:10:51.153Z,96527.41
2023-03-01T17:13:41.927Z,96525.88
2023-03-01T17:16:30.605Z,96530.63
2023-03-01T17:19:24.653Z,96530.13
2023-03-01T17:22:14.001Z,96534.81
2023-03-01T17:25:04.518Z,96540.31
2023-03-01T17:27:53.473Z,96543.75
2023-03-01T17:30:46.115Z,96545.94
2023-03-01T17:33:35.002Z,96552.25
2023-03-01T17:36:26.614Z,96549.69
2023-03-01T17:39:15.439Z,96550.59
2023-03-01T17:42:07.021Z,96558.16
2023-03-01T17:44:55.692Z,96560.09
2023-03-01T17:47:45.762Z,96560.41
2023-03-01T17:50:40.357Z,96557.53
2023-03-01T17:53:31.256Z,96559.47
2023-03-01T17:56:19.920Z,96566.38
2023-03-01T17:59:09.033Z,96554.81
2023-03-01T18:01:58.900Z,96568.06
2023-03-01T18:04:48.766Z,96570.44
2023-03-01T18:07:37.924Z,96569.59
2023-03-01T18:10:28.775Z,96571.00
2023-03-01T18:13:17.597Z,96577.59
2023-03-01T18:16:07.903Z,96575.38
2023-03-01T18:18:57.338Z,96569.97
2023-03-01T18:21:46.384Z,96570.22
2023-03-01T18:24:35.108Z,96584.78
2023-03-01T18:27:27.047Z,96573.50
2023-03-01T18:30:16.386Z,96577.44
2023-03-01T18:33:05.916Z,96580.28
2023-03-01T18:35:55.050Z,96577.94
2023-03-01T18:38:43.592Z,96575.13
2023-03-01T18:41:33.960Z,96571.19
2023-03-01T18:44:24.203Z,96579.22
2023-03-01T18:47:15.046Z,96578.94
2023-03-01T18:50:05.281Z,96579.34
2023-03-01T18:52:54.848Z,96586.13
2023-03-01T18:55:43.433Z,96586.56
2023-03-01T18:58:32.686Z,96588.00
2023-03-01T19:01:25.136Z,96581.59
2023-03-01T19:04:15.253Z,96566.81
2023-03-01T19:07:03.992Z,96588.72
2023-03-01T19:09:53.161Z,96582.38
2023-03-01T19:12:42.306Z,96578.28
2023-03-01T19:15:30.965Z,96577.97
2023-03-01T19:18:21.936Z,96595.81
2023-03-01T19:21:12.477Z,96590.06
2023-03-01T19:24:03.416Z,96580.16
2023-03-01T19:26:52.036Z,96580.56
2023-03-01T19:29:41.217Z,96586.16
2023-03-01T19:32:29.914Z,96594.47
2023-03-01T19:35:21.640Z,96582.06
2023-03-01T19:38:10.307Z,96588.66
2023-03-01T19:40:59.549Z,96583.72
2023-03-01T19:43:48.234Z,96567.22
2023-03-01T19:46:37.056Z,96578.38
2023-03-01T19:49:29.717Z,96585.81
2023-03-01T19:52:19.868Z,96583.94
2023-03-01T19:55:10.262Z,96571.91
2023-03-01T19:57:58.937Z,96583.72
2023-03-01T20:00:48.525Z,96558.31
2023-03-01T20:03:37.572Z,96569.91
2023-03-01T20:06:26.197Z,96574.88
2023-03-01T20:09:21.928Z,96557.91
2023-03-01T20:12:10.890Z,96573.66
2023-03-01T20:14:59.769Z,96567.44
2023-03-01T20:17:48.729Z,96573.25
2023-03-01T20:20:37.563Z,96571.13
2023-03-01T20:23:27.133Z,96568.88
2023-03-01T20:26:19.627Z,96564.75
2023-03-01T20:29:09.027Z,96573.59
2023-03-01T20:31:58.115Z,96578.78
2023-03-01T20:34:47.530Z,96570.50
2023-03-01T20:37:36.288Z,96577.31
2023-03-01T20:40:28.074Z,96579.97
2023-03-01T20:43:18.837Z,96585.81
2023-03-01T20:46:09.060Z,96578.34
2023-03-01T20:48:58.138Z,96581.03
2023-03-01T20:51:46.754Z,96580.00
2023-03-01T20:54:36.697Z,96577.75
2023-03-01T20:57:25.376Z,96582.28
2023-03-01T21:00:16.046Z,96579.34
2023-03-01T21:03:06.022Z,96568.59
2023-03-01T21:05:56.657Z,96568.16
2023-03-01T21:08:45.637Z,96564.41
2023-03-01T21:11:34.225Z,96571.00
2023-03-01T21:14:23.706Z,96568.31
2023-03-01T21:17:16.055Z,96558.84
2023-03-01T21:20:06.261Z,96552.66
2023-03-01T21:22:54.897Z,96561.16
2023-03-01T21:25:45.685Z,96554.09
2023-03-01T21:28:35.521Z,96542.72
2023-03-01T21:31:27.946Z,96535.81
2023-03-01T21:34:17.931Z,96546.53
2023-03-01T21:37:08.128Z,96542.63
2023-03-01T21:39:57.117Z,96546.53
2023-03-01T21:42:49.186Z,96549.84
2023-03-01T21:45:37.838Z,96542.41
2023-03-01T21:48:27.778Z,96543.19
2023-03-01T21:51:19.369Z,96536.63
2023-03-01T21:54:09.829Z,96529.53
2023-03-01T21:56:58.581Z,96515.94
2023-03-01T21:59:47.755Z,96512.75
2023-03-01T22:02:36.323Z,96516.50
2023-03-01T22:05:26.420Z,96519.13
2023-03-01T22:08:16.373Z,96516.84
2023-03-01T22:11:06.239Z,96516.78
2023-03-01T22:13:56.844Z,96512.66
2023-03-01T22:16:48.142Z,96516.97
2023-03-01T22:19:36.833Z,96509.78
2023-03-01T22:22:25.419Z,96503.41
2023-03-01T22:25:15.822Z,96500.31
2023-03-01T22:28:05.032Z,96507.53
2023-03-01T22:30:53.630Z,96502.13
2023-03-01T22:33:42.640Z,96499.44
2023-03-01T22:36:32.198Z,96499.66
2023-03-01T22:39:22.109Z,96499.91
2023-03-01T22:42:12.895Z,96498.00
2023-03-01T22:45:01.598Z,96501.47
2023-03-01T22:47:50.476Z,96497.03
2023-03-01T22:50:39.083Z,96485.84
2023-03-01T22:53:27.963Z,96491.81
2023-03-01T22:56:18.965Z,96492.97
2023-03-01T22:59:12.377Z,96495.66
2023-03-01T23:02:01.581Z,96490.59
2023-03-01T23:04:50.223Z,96483.81
2023-03-01T23:07:38.932Z,96477.56
2023-03-01T23:10:27.898Z,96482.25
2023-03-01T23:13:17.614Z,96477.94
2023-03-01T23:16:08.434Z,96483.03
2023-03-01T23:18:59.554Z,96478.56
2023-03-01T23:21:50.262Z,96473.94
2023-03-01T23:24:40.232Z,96490.50
2023-03-01T23:27:30.723Z,96477.31
2023-03-01T23:30:21.143Z,96471.16
2023-03-01T23:33:11.051Z,96470.75
2023-03-01T23:36:03.870Z,96478.38
2023-03-01T23:38:54.608Z,96467.47
2023-03-01T23:41:44.203Z,96479.34
2023-03-01T23:44:33.217Z,96474.13
2023-03-01T23:47:24.384Z,96486.66
2023-03-01T23:50:14.772Z,96483.75
2023-03-01T23:53:04.460Z,96465.19
2023-03-01T23:55:55.238Z,96462.41
2023-03-01T23:58:46.099Z,96467.44
